createdAt,value
2017-08-25T00:00:37.583Z,99.99
2017-08-25T00:01:18.116Z,99.99
2017-08-25T00:01:58.648Z,99.99
2017-08-25T00:02:39.210Z,99.99
2017-08-25T00:03:19.722Z,99.99
2017-08-25T00:04:00.264Z,99.99
2017-08-25T00:04:40.794Z,99.99
2017-08-25T00:05:21.328Z,99.99
2017-08-25T00:06:01.861Z,99.99
2017-08-25T00:06:42.398Z,99.99
2017-08-25T00:07:22.937Z,99.99
2017-08-25T00:08:03.476Z,99.99
2017-08-25T00:08:44.014Z,99.99
2017-08-25T00:09:24.542Z,99.99
2017-08-25T00:10:05.073Z,99.99
2017-08-25T00:10:45.618Z,99.99
2017-08-25T00:11:26.152Z,99.99
2017-08-25T00:12:06.683Z,99.99
2017-08-25T00:12:47.221Z,99.99
2017-08-25T00:13:27.761Z,99.99
2017-08-25T00:14:08.316Z,99.99
2017-08-25T00:14:48.852Z,99.99
2017-08-25T00:15:29.396Z,99.99
2017-08-25T00:16:09.951Z,99.99
2017-08-25T00:16:50.466Z,99.99
2017-08-25T00:17:31.006Z,99.99
2017-08-25T00:18:11.550Z,99.99
2017-08-25T00:18:52.087Z,99.99
2017-08-25T00:19:32.627Z,99.99
2017-08-25T00:20:13.164Z,99.99
2017-08-25T00:20:53.716Z,99.99
2017-08-25T00:21:34.255Z,99.99
2017-08-25T00:22:14.784Z,99.99
2017-08-25T00:22:55.323Z,99.99
2017-08-25T00:23:35.856Z,99.99
2017-08-25T00:24:16.391Z,99.99
2017-08-25T00:24:56.930Z,99.99
2017-08-25T00:25:37.470Z,99.99
2017-08-25T00:26:18.008Z,99.99
2017-08-25T00:26:58.547Z,99.99
2017-08-25T00:27:39.087Z,99.99
2017-08-25T00:28:19.621Z,99.99
2017-08-25T00:29:00.155Z,99.99
2017-08-25T00:29:40.696Z,99.99
2017-08-25T00:30:21.233Z,99.99
2017-08-25T00:31:01.776Z,99.99
2017-08-25T00:31:42.314Z,99.99
2017-08-25T00:32:22.851Z,99.99
2017-08-25T00:33:03.388Z,99.99
2017-08-25T00:33:43.924Z,99.99
2017-08-25T00:34:24.506Z,99.99
2017-08-25T00:35:05.044Z,99.99
2017-08-25T00:35:45.579Z,99.99
2017-08-25T00:36:26.108Z,99.99
2017-08-25T00:37:06.645Z,99.99
2017-08-25T00:37:47.184Z,99.99
2017-08-25T00:38:27.722Z,99.99
2017-08-25T00:39:08.261Z,99.99
2017-08-25T00:39:48.793Z,99.99
2017-08-25T00:40:29.317Z,99.99
2017-08-25T00:41:09.856Z,99.99
2017-08-25T00:41:50.394Z,99.99
2017-08-25T00:42:30.936Z,99.99
2017-08-25T00:43:11.471Z,99.99
2017-08-25T00:43:52.012Z,99.99
2017-08-25T00:44:32.546Z,99.99
2017-08-25T00:45:13.083Z,99.99
2017-08-25T00:45:53.622Z,99.99
2017-08-25T00:46:34.150Z,99.99
2017-08-25T00:47:14.692Z,99.99
2017-08-25T00:47:55.230Z,99.99
2017-08-25T00:48:35.787Z,99.99
2017-08-25T00:49:16.292Z,99.99
2017-08-25T00:49:56.837Z,99.99
2017-08-25T00:50:37.369Z,99.99
2017-08-25T00:51:17.894Z,99.99
2017-08-25T00:51:58.434Z,99.99
2017-08-25T00:52:38.957Z,99.99
2017-08-25T00:53:19.495Z,99.99
2017-08-25T00:54:00.032Z,99.99
2017-08-25T00:54:40.567Z,99.99
2017-08-25T00:55:21.109Z,99.99
2017-08-25T00:56:01.647Z,99.99
2017-08-25T00:56:42.222Z,99.99
2017-08-25T00:57:22.757Z,99.99
2017-08-25T00:58:03.298Z,99.99
2017-08-25T00:58:43.836Z,99.99
2017-08-25T00:59:24.379Z,99.99
2017-08-25T01:00:04.917Z,99.99
2017-08-25T01:00:45.445Z,99.99
2017-08-25T01:01:25.983Z,99.99
2017-08-25T01:02:06.524Z,99.99
2017-08-25T01:02:47.071Z,99.99
2017-08-25T01:03:27.597Z,99.99
2017-08-25T01:04:08.128Z,99.99
2017-08-25T01:04:48.659Z,99.99
2017-08-25T01:05:29.198Z,99.99
2017-08-25T01:06:09.728Z,99.99
2017-08-25T01:06:50.258Z,99.99
2017-08-25T01:07:30.794Z,99.99
2017-08-25T01:08:11.374Z,99.99
2017-08-25T01:08:51.903Z,99.99
2017-08-25T01:09:32.445Z,99.99
2017-08-25T01:10:12.984Z,99.99
2017-08-25T01:10:53.521Z,99.99
2017-08-25T01:11:34.056Z,99.99
2017-08-25T01:12:14.584Z,99.99
2017-08-25T01:12:55.117Z,99.99
2017-08-25T01:13:35.650Z,99.99
2017-08-25T01:14:16.192Z,99.99
2017-08-25T01:14:56.728Z,99.99
2017-08-25T01:15:37.269Z,99.99
2017-08-25T01:16:17.801Z,99.99
2017-08-25T01:16:58.338Z,99.99
2017-08-25T01:17:38.879Z,99.99
2017-08-25T01:18:19.416Z,99.99
2017-08-25T01:18:59.953Z,99.99
2017-08-25T01:19:40.492Z,99.99
2017-08-25T01:20:21.034Z,99.99
2017-08-25T01:21:01.563Z,99.99
2017-08-25T01:21:42.093Z,99.99
2017-08-25T01:22:22.630Z,99.99
2017-08-25T01:23:03.171Z,99.99
2017-08-25T01:23:43.708Z,99.99
2017-08-25T01:24:24.246Z,99.99
2017-08-25T01:25:04.782Z,99.99
2017-08-25T01:25:45.321Z,99.99
2017-08-25T01:26:25.857Z,99.99
2017-08-25T01:27:06.397Z,99.99
2017-08-25T01:27:46.937Z,99.99
2017-08-25T01:28:27.477Z,99.99
2017-08-25T01:29:08.016Z,99.99
2017-08-25T01:29:48.546Z,99.99
2017-08-25T01:30:29.071Z,99.99
2017-08-25T01:31:09.612Z,99.99
2017-08-25T01:31:50.152Z,99.99
2017-08-25T01:32:30.696Z,99.99
2017-08-25T01:33:11.238Z,99.99
2017-08-25T01:33:51.775Z,99.99
2017-08-25T01:34:32.306Z,99.99
2017-08-25T01:35:12.844Z,99.99
2017-08-25T01:35:53.367Z,99.99
2017-08-25T01:36:33.904Z,99.99
2017-08-25T01:37:14.439Z,99.99
2017-08-25T01:37:54.977Z,99.99
2017-08-25T01:38:35.519Z,99.99
2017-08-25T01:39:16.059Z,99.99
2017-08-25T01:39:56.603Z,99.99
2017-08-25T01:40:37.133Z,99.99
2017-08-25T01:41:17.672Z,99.99
2017-08-25T01:41:58.208Z,99.99
2017-08-25T01:42:38.745Z,99.99
2017-08-25T01:43:19.279Z,99.99
2017-08-25T01:43:59.805Z,99.99
2017-08-25T01:44:40.336Z,99.99
2017-08-25T01:45:20.871Z,99.99
2017-08-25T01:46:01.411Z,99.99
2017-08-25T01:46:41.947Z,99.99
2017-08-25T01:47:22.483Z,99.99
2017-08-25T01:48:03.016Z,99.99
2017-08-25T01:48:43.544Z,99.99
2017-08-25T01:49:24.078Z,99.99
2017-08-25T01:50:04.617Z,99.99
2017-08-25T01:50:45.150Z,99.99
2017-08-25T01:51:25.689Z,99.99
2017-08-25T01:52:06.221Z,99.99
2017-08-25T01:52:46.757Z,99.99
2017-08-25T01:53:27.291Z,99.99
2017-08-25T01:54:07.829Z,99.99
2017-08-25T01:54:48.370Z,99.99
2017-08-25T01:55:28.907Z,99.99
2017-08-25T01:56:09.436Z,99.99
2017-08-25T01:56:49.964Z,99.99
2017-08-25T01:57:30.500Z,99.99
2017-08-25T01:58:11.037Z,99.99
2017-08-25T01:58:51.575Z,99.99
2017-08-25T01:59:32.110Z,99.99
2017-08-25T02:00:12.643Z,99.99
2017-08-25T02:00:53.177Z,99.99
2017-08-25T02:01:33.715Z,99.99
2017-08-25T02:02:14.247Z,99.99
2017-08-25T02:02:54.792Z,99.99
2017-08-25T02:03:35.327Z,99.99
2017-08-25T02:04:15.867Z,99.99
2017-08-25T02:04:56.408Z,99.99
2017-08-25T02:05:36.948Z,99.99
2017-08-25T02:06:17.474Z,99.99
2017-08-25T02:06:58.017Z,99.99
2017-08-25T02:07:38.552Z,99.99
2017-08-25T02:08:19.092Z,99.99
2017-08-25T02:08:59.633Z,99.99
2017-08-25T02:09:40.173Z,99.99
2017-08-25T02:10:20.711Z,99.99
2017-08-25T02:11:01.271Z,99.99
2017-08-25T02:11:41.813Z,99.99
2017-08-25T02:12:22.375Z,99.99
2017-08-25T02:13:02.914Z,99.99
2017-08-25T02:13:43.453Z,99.99
2017-08-25T02:14:23.991Z,99.99
2017-08-25T02:15:04.530Z,99.99
2017-08-25T02:15:45.129Z,99.99
2017-08-25T02:16:25.598Z,99.99
2017-08-25T02:17:06.137Z,99.99
2017-08-25T02:17:46.677Z,99.99
2017-08-25T02:18:27.220Z,99.99
2017-08-25T02:19:07.740Z,99.99
2017-08-25T02:19:48.288Z,99.99
2017-08-25T02:20:28.815Z,99.99
2017-08-25T02:21:09.356Z,99.99
2017-08-25T02:21:49.893Z,99.99
2017-08-25T02:22:30.433Z,99.99
2017-08-25T02:23:10.977Z,99.99
2017-08-25T02:23:51.493Z,99.99
2017-08-25T02:24:32.046Z,99.99
2017-08-25T02:25:12.576Z,99.99
2017-08-25T02:25:53.109Z,99.99
2017-08-25T02:26:33.647Z,99.99
2017-08-25T02:27:14.183Z,99.99
2017-08-25T02:27:54.723Z,99.99
2017-08-25T02:28:35.268Z,99.99
2017-08-25T02:29:15.813Z,99.99
2017-08-25T02:29:56.336Z,99.99
2017-08-25T02:30:36.875Z,99.99
2017-08-25T02:31:17.407Z,99.99
2017-08-25T02:31:57.948Z,99.99
2017-08-25T02:32:38.486Z,99.99
2017-08-25T02:33:19.026Z,99.99
2017-08-25T02:33:59.563Z,99.99
2017-08-25T02:34:40.098Z,99.99
2017-08-25T02:35:20.634Z,99.99
2017-08-25T02:36:01.172Z,99.99
2017-08-25T02:36:41.708Z,99.99
2017-08-25T02:37:22.244Z,99.99
2017-08-25T02:38:02.781Z,99.99
2017-08-25T02:38:43.318Z,99.99
2017-08-25T02:39:23.851Z,99.99
2017-08-25T02:40:04.387Z,99.99
2017-08-25T02:40:44.923Z,99.99
2017-08-25T02:41:25.461Z,99.99
2017-08-25T02:42:05.995Z,99.99
2017-08-25T02:42:46.532Z,99.99
2017-08-25T02:43:27.064Z,99.99
2017-08-25T02:44:07.605Z,99.99
2017-08-25T02:44:48.144Z,99.99
2017-08-25T02:45:28.685Z,99.99
2017-08-25T02:46:09.216Z,99.99
2017-08-25T02:46:49.753Z,99.99
2017-08-25T02:47:30.293Z,99.99
2017-08-25T02:48:10.832Z,99.99
2017-08-25T02:48:51.374Z,99.99
2017-08-25T02:49:31.911Z,99.99
2017-08-25T02:50:12.514Z,99.99
2017-08-25T02:50:53.057Z,99.99
2017-08-25T02:51:33.598Z,99.99
2017-08-25T02:52:14.136Z,99.99
2017-08-25T02:52:54.678Z,99.99
2017-08-25T02:53:35.214Z,99.99
2017-08-25T02:54:15.747Z,99.99
2017-08-25T02:54:56.287Z,99.99
2017-08-25T02:55:36.824Z,99.99
2017-08-25T02:56:17.363Z,99.99
2017-08-25T02:56:57.899Z,99.99
2017-08-25T02:57:38.440Z,99.99
2017-08-25T02:58:18.977Z,99.99
2017-08-25T02:58:59.528Z,99.99
2017-08-25T02:59:40.050Z,99.99
2017-08-25T03:00:20.589Z,99.99
2017-08-25T03:01:01.129Z,99.99
2017-08-25T03:01:41.667Z,99.99
2017-08-25T03:02:22.209Z,99.99
2017-08-25T03:03:02.742Z,99.99
2017-08-25T03:03:43.277Z,99.99
2017-08-25T03:04:23.808Z,99.99
2017-08-25T03:05:04.349Z,99.99
2017-08-25T03:05:44.886Z,99.99
2017-08-25T03:06:25.420Z,99.99
2017-08-25T03:07:05.952Z,99.99
2017-08-25T03:07:46.484Z,99.99
2017-08-25T03:08:27.008Z,99.99
2017-08-25T03:09:07.545Z,99.99
2017-08-25T03:09:48.081Z,99.99
2017-08-25T03:10:28.628Z,99.99
2017-08-25T03:11:09.168Z,99.99
2017-08-25T03:11:49.711Z,99.99
2017-08-25T03:12:30.242Z,99.99
2017-08-25T03:13:10.778Z,99.99
2017-08-25T03:13:51.312Z,99.99
2017-08-25T03:14:31.849Z,99.99
2017-08-25T03:15:12.391Z,99.99
2017-08-25T03:15:52.928Z,99.99
2017-08-25T03:16:33.474Z,99.99
2017-08-25T03:17:14.009Z,99.99
2017-08-25T03:17:54.547Z,99.99
2017-08-25T03:18:35.086Z,99.99
2017-08-25T03:19:15.618Z,99.99
2017-08-25T03:19:56.147Z,99.99
2017-08-25T03:20:36.684Z,99.99
2017-08-25T03:21:17.224Z,99.99
2017-08-25T03:21:57.761Z,99.99
2017-08-25T03:22:38.294Z,99.99
2017-08-25T03:23:18.825Z,99.99
2017-08-25T03:23:59.362Z,99.99
2017-08-25T03:24:39.901Z,99.99
2017-08-25T03:25:20.443Z,99.99
2017-08-25T03:26:00.981Z,99.99
2017-08-25T03:26:41.522Z,99.99
2017-08-25T03:27:22.058Z,99.99
2017-08-25T03:28:02.598Z,99.99
2017-08-25T03:28:43.132Z,99.99
2017-08-25T03:29:23.663Z,99.99
2017-08-25T03:30:04.228Z,99.99
2017-08-25T03:30:44.755Z,99.99
2017-08-25T03:31:25.293Z,99.99
2017-08-25T03:32:05.827Z,99.99
2017-08-25T03:32:46.358Z,99.99
2017-08-25T03:33:26.894Z,99.99
2017-08-25T03:34:07.432Z,99.99
2017-08-25T03:34:47.966Z,99.99
2017-08-25T03:35:28.509Z,99.99
2017-08-25T03:36:09.048Z,99.99
2017-08-25T03:36:49.583Z,99.99
2017-08-25T03:37:30.117Z,99.99
2017-08-25T03:38:10.645Z,99.99
2017-08-25T03:38:51.176Z,99.99
2017-08-25T03:39:31.712Z,99.99
2017-08-25T03:40:12.262Z,99.99
2017-08-25T03:40:52.803Z,99.99
2017-08-25T03:41:33.343Z,99.99
2017-08-25T03:42:13.910Z,99.99
2017-08-25T03:42:54.745Z,99.99
2017-08-25T03:43:35.350Z,99.99
2017-08-25T03:44:15.923Z,99.99
2017-08-25T03:44:56.459Z,99.99
2017-08-25T03:45:36.998Z,99.99
2017-08-25T03:46:17.551Z,99.99
2017-08-25T03:46:58.089Z,99.99
2017-08-25T03:47:38.629Z,99.99
2017-08-25T03:48:19.168Z,99.99
2017-08-25T03:48:59.707Z,99.99
2017-08-25T03:49:40.269Z,99.99
2017-08-25T03:50:20.834Z,99.99
2017-08-25T03:51:01.374Z,99.99
2017-08-25T03:51:41.913Z,99.99
2017-08-25T03:52:22.454Z,99.99
2017-08-25T03:53:02.993Z,99.99
2017-08-25T03:53:43.530Z,99.99
2017-08-25T03:54:24.071Z,99.99
2017-08-25T03:55:04.609Z,99.99
2017-08-25T03:55:45.153Z,99.99
2017-08-25T03:56:25.691Z,99.99
2017-08-25T03:57:06.230Z,99.99
2017-08-25T03:57:46.768Z,99.99
2017-08-25T03:58:27.347Z,99.99
2017-08-25T03:59:07.877Z,99.99
2017-08-25T03:59:48.443Z,99.99
2017-08-25T04:00:28.976Z,99.99
2017-08-25T04:01:09.525Z,99.99
2017-08-25T04:01:50.061Z,99.99
2017-08-25T04:02:30.634Z,99.99
2017-08-25T04:03:11.175Z,99.99
2017-08-25T04:03:51.719Z,99.99
2017-08-25T04:04:32.224Z,99.99
2017-08-25T04:05:12.765Z,99.99
2017-08-25T04:05:53.295Z,99.99
2017-08-25T04:06:33.837Z,99.99
2017-08-25T04:07:14.373Z,99.99
2017-08-25T04:07:54.910Z,99.99
2017-08-25T04:08:35.445Z,99.99
2017-08-25T04:09:15.976Z,99.99
2017-08-25T04:09:56.670Z,99.99
2017-08-25T04:10:37.146Z,99.99
2017-08-25T04:11:17.684Z,99.99
2017-08-25T04:11:58.248Z,99.99
2017-08-25T04:12:38.785Z,99.99
2017-08-25T04:13:19.323Z,99.99
2017-08-25T04:13:59.856Z,99.99
2017-08-25T04:14:40.424Z,99.99
2017-08-25T04:15:20.963Z,99.99
2017-08-25T04:16:01.497Z,99.99
2017-08-25T04:16:42.033Z,99.99
2017-08-25T04:17:22.570Z,99.99
2017-08-25T04:18:03.126Z,99.99
2017-08-25T04:18:43.668Z,99.99
2017-08-25T04:19:24.243Z,99.99
2017-08-25T04:20:04.780Z,99.99
2017-08-25T04:20:45.316Z,99.99
2017-08-25T04:21:25.853Z,99.99
2017-08-25T04:22:06.388Z,99.99
2017-08-25T04:22:46.927Z,99.99
2017-08-25T04:23:27.464Z,99.99
2017-08-25T04:24:08.000Z,99.99
2017-08-25T04:24:48.528Z,99.99
2017-08-25T04:25:29.069Z,99.99
2017-08-25T04:26:09.607Z,99.99
2017-08-25T04:26:50.139Z,99.99
2017-08-25T04:27:30.681Z,99.99
2017-08-25T04:28:11.217Z,99.99
2017-08-25T04:28:51.757Z,99.99
2017-08-25T04:29:32.291Z,99.99
2017-08-25T04:30:12.833Z,99.99
2017-08-25T04:30:53.378Z,99.99
2017-08-25T04:31:33.915Z,99.99
2017-08-25T04:32:14.457Z,99.99
2017-08-25T04:32:54.996Z,99.99
2017-08-25T04:33:35.550Z,99.99
2017-08-25T04:34:16.082Z,99.99
2017-08-25T04:34:56.618Z,99.99
2017-08-25T04:35:37.153Z,99.99
2017-08-25T04:36:17.692Z,99.99
2017-08-25T04:36:58.232Z,99.99
2017-08-25T04:37:38.771Z,99.99
2017-08-25T04:38:19.312Z,99.99
2017-08-25T04:38:59.852Z,99.99
2017-08-25T04:39:40.379Z,99.99
2017-08-25T04:40:20.924Z,99.99
2017-08-25T04:41:01.457Z,99.99
2017-08-25T04:41:41.995Z,99.99
2017-08-25T04:42:22.540Z,99.99
2017-08-25T04:43:03.193Z,99.99
2017-08-25T04:43:43.764Z,99.99
2017-08-25T04:44:24.523Z,99.99
2017-08-25T04:45:05.092Z,99.99
2017-08-25T04:45:46.096Z,99.99
2017-08-25T04:46:26.630Z,99.99
2017-08-25T04:47:07.163Z,99.99
2017-08-25T04:47:47.742Z,99.99
2017-08-25T04:48:28.323Z,99.99
2017-08-25T04:49:08.860Z,99.99
2017-08-25T04:49:49.408Z,99.99
2017-08-25T04:50:31.372Z,99.99
2017-08-25T04:51:11.916Z,99.99
2017-08-25T04:51:52.465Z,99.99
2017-08-25T04:52:32.994Z,99.99
2017-08-25T04:53:13.528Z,99.99
2017-08-25T04:53:54.075Z,99.99
2017-08-25T04:54:34.605Z,99.99
2017-08-25T04:55:15.142Z,99.99
2017-08-25T04:55:55.677Z,99.99
2017-08-25T04:56:36.228Z,99.99
2017-08-25T04:57:16.766Z,99.99
2017-08-25T04:57:57.303Z,99.99
2017-08-25T04:58:37.846Z,99.99
2017-08-25T04:59:18.383Z,99.99
2017-08-25T04:59:58.921Z,99.99
2017-08-25T05:00:39.460Z,99.99
2017-08-25T05:01:19.996Z,99.99
2017-08-25T05:02:00.530Z,99.99
2017-08-25T05:02:41.058Z,99.99
2017-08-25T05:03:21.587Z,99.99
2017-08-25T05:04:02.124Z,99.99
2017-08-25T05:04:42.651Z,99.99
2017-08-25T05:05:23.190Z,99.99
2017-08-25T05:06:03.720Z,99.99
2017-08-25T05:06:44.257Z,99.99
2017-08-25T05:07:24.790Z,99.99
2017-08-25T05:08:05.329Z,99.99
2017-08-25T05:08:45.868Z,99.99
2017-08-25T05:09:26.408Z,99.99
2017-08-25T05:10:06.947Z,99.99
2017-08-25T05:10:47.476Z,99.99
2017-08-25T05:11:28.040Z,99.99
2017-08-25T05:12:08.574Z,99.99
2017-08-25T05:12:49.111Z,99.99
2017-08-25T05:13:29.643Z,99.99
2017-08-25T05:14:10.179Z,99.99
2017-08-25T05:14:50.721Z,99.99
2017-08-25T05:15:31.263Z,99.99
2017-08-25T05:16:11.801Z,99.99
2017-08-25T05:16:52.333Z,99.99
2017-08-25T05:17:32.867Z,99.99
2017-08-25T05:18:13.401Z,99.99
2017-08-25T05:18:53.941Z,99.99
2017-08-25T05:19:34.475Z,99.99
2017-08-25T05:20:15.013Z,99.99
2017-08-25T05:20:55.549Z,99.99
2017-08-25T05:21:36.093Z,99.99
2017-08-25T05:22:16.631Z,99.99
2017-08-25T05:22:57.169Z,99.99
2017-08-25T05:23:37.703Z,99.99
2017-08-25T05:24:18.242Z,99.99
2017-08-25T05:24:58.779Z,99.99
2017-08-25T05:25:39.321Z,99.99
2017-08-25T05:26:19.857Z,99.99
2017-08-25T05:27:00.381Z,99.99
2017-08-25T05:27:40.909Z,99.99
2017-08-25T05:28:21.445Z,99.99
2017-08-25T05:29:01.983Z,99.99
2017-08-25T05:29:42.522Z,99.99
2017-08-25T05:30:23.053Z,99.99
2017-08-25T05:31:03.583Z,99.99
2017-08-25T05:31:44.128Z,99.99
2017-08-25T05:32:24.671Z,99.99
2017-08-25T05:33:05.198Z,99.99
2017-08-25T05:33:45.739Z,99.99
2017-08-25T05:34:26.279Z,99.99
2017-08-25T05:35:06.817Z,99.99
2017-08-25T05:35:47.353Z,99.99
2017-08-25T05:36:27.879Z,99.99
2017-08-25T05:37:08.414Z,99.99
2017-08-25T05:37:48.949Z,99.99
2017-08-25T05:38:29.492Z,99.99
2017-08-25T05:39:10.031Z,99.99
2017-08-25T05:39:50.570Z,99.99
2017-08-25T05:40:31.109Z,99.99
2017-08-25T05:41:11.653Z,99.99
2017-08-25T05:41:52.188Z,99.99
2017-08-25T05:42:32.719Z,99.99
2017-08-25T05:43:13.269Z,99.99
2017-08-25T05:43:53.797Z,99.99
2017-08-25T05:44:34.336Z,99.99
2017-08-25T05:45:14.883Z,99.99
2017-08-25T05:45:55.420Z,99.99
2017-08-25T05:46:35.952Z,99.99
2017-08-25T05:47:16.492Z,99.99
2017-08-25T05:47:57.024Z,99.99
2017-08-25T05:48:37.564Z,99.99
2017-08-25T05:49:18.126Z,99.99
2017-08-25T05:49:58.661Z,99.99
2017-08-25T05:50:39.203Z,99.99
2017-08-25T05:51:19.743Z,99.99
2017-08-25T05:52:00.282Z,99.99
2017-08-25T05:52:40.822Z,99.99
2017-08-25T05:53:21.363Z,99.99
2017-08-25T05:54:01.894Z,99.99
2017-08-25T05:54:42.440Z,99.99
2017-08-25T05:55:22.978Z,99.99
2017-08-25T05:56:03.511Z,99.99
2017-08-25T05:56:44.052Z,99.99
2017-08-25T05:57:24.676Z,99.99
2017-08-25T05:58:05.214Z,99.99
2017-08-25T05:58:45.748Z,99.99
2017-08-25T05:59:26.286Z,99.99
2017-08-25T06:00:06.838Z,99.99
2017-08-25T06:00:47.376Z,99.99
2017-08-25T06:01:27.914Z,99.99
2017-08-25T06:02:08.451Z,99.99
2017-08-25T06:02:48.980Z,99.99
2017-08-25T06:03:29.490Z,99.99
2017-08-25T06:04:10.030Z,99.99
2017-08-25T06:04:50.554Z,99.99
2017-08-25T06:05:31.098Z,99.99
2017-08-25T06:06:11.635Z,99.99
2017-08-25T06:06:52.164Z,99.99
2017-08-25T06:07:32.698Z,99.99
2017-08-25T06:08:13.262Z,99.99
2017-08-25T06:08:53.792Z,99.99
2017-08-25T06:09:34.329Z,99.99
2017-08-25T06:10:14.864Z,99.99
2017-08-25T06:10:55.410Z,99.99
2017-08-25T06:11:35.949Z,99.99
2017-08-25T06:12:16.490Z,99.99
2017-08-25T06:12:57.061Z,99.99
2017-08-25T06:13:37.605Z,99.99
2017-08-25T06:14:18.159Z,99.99
2017-08-25T06:14:58.698Z,99.99
2017-08-25T06:15:39.212Z,99.99
2017-08-25T06:16:19.752Z,99.99
2017-08-25T06:17:00.295Z,99.99
2017-08-25T06:17:40.834Z,99.99
2017-08-25T06:18:21.370Z,99.99
2017-08-25T06:19:01.926Z,99.99
2017-08-25T06:19:42.486Z,99.99
2017-08-25T06:20:23.025Z,99.99
2017-08-25T06:21:03.563Z,99.99
2017-08-25T06:21:44.158Z,99.99
2017-08-25T06:22:24.703Z,99.99
2017-08-25T06:23:05.243Z,99.99
2017-08-25T06:23:45.789Z,99.99
2017-08-25T06:24:26.331Z,99.99
2017-08-25T06:25:06.870Z,99.99
2017-08-25T06:25:47.387Z,99.99
2017-08-25T06:26:27.929Z,99.99
2017-08-25T06:27:08.440Z,99.99
2017-08-25T06:27:49.001Z,99.99
2017-08-25T06:28:29.542Z,99.99
2017-08-25T06:29:10.082Z,99.99
2017-08-25T06:29:50.615Z,99.99
2017-08-25T06:30:31.149Z,99.99
2017-08-25T06:31:11.687Z,99.99
2017-08-25T06:31:52.228Z,99.99
2017-08-25T06:32:32.760Z,99.99
2017-08-25T06:33:13.298Z,99.99
2017-08-25T06:33:53.836Z,99.99
2017-08-25T06:34:34.378Z,99.99
2017-08-25T06:35:14.918Z,99.99
2017-08-25T06:35:55.469Z,99.99
2017-08-25T06:36:35.993Z,99.99
2017-08-25T06:37:16.538Z,99.99
2017-08-25T06:37:57.067Z,99.99
2017-08-25T06:38:37.602Z,99.99
2017-08-25T06:39:18.137Z,99.99
2017-08-25T06:39:58.681Z,99.99
2017-08-25T06:40:39.223Z,99.99
2017-08-25T06:41:19.762Z,99.99
2017-08-25T06:42:00.298Z,99.99
2017-08-25T06:42:40.844Z,99.99
2017-08-25T06:43:21.378Z,99.99
2017-08-25T06:44:01.910Z,99.99
2017-08-25T06:44:42.441Z,99.99
2017-08-25T06:45:23.003Z,99.99
2017-08-25T06:46:03.537Z,99.99
2017-08-25T06:46:44.073Z,99.99
2017-08-25T06:47:24.629Z,99.99
2017-08-25T06:48:05.159Z,99.99
2017-08-25T06:48:45.686Z,99.99
2017-08-25T06:49:26.224Z,99.99
2017-08-25T06:50:06.773Z,99.99
2017-08-25T06:50:47.291Z,99.99
2017-08-25T06:51:27.832Z,99.99
2017-08-25T06:52:08.363Z,99.99
2017-08-25T06:52:48.906Z,99.99
2017-08-25T06:53:29.435Z,99.99
2017-08-25T06:54:09.981Z,99.99
2017-08-25T06:54:50.505Z,99.99
2017-08-25T06:55:31.060Z,99.99
2017-08-25T06:56:11.639Z,99.99
2017-08-25T06:56:52.171Z,99.99
2017-08-25T06:57:32.707Z,99.99
2017-08-25T06:58:13.250Z,99.99
2017-08-25T06:58:53.791Z,99.99
2017-08-25T06:59:34.340Z,99.99
2017-08-25T07:00:14.868Z,99.99
2017-08-25T07:00:55.415Z,99.99
2017-08-25T07:01:35.957Z,99.99
2017-08-25T07:02:16.496Z,99.99
2017-08-25T07:02:57.034Z,99.99
2017-08-25T07:03:37.575Z,99.99
2017-08-25T07:04:18.119Z,99.99
2017-08-25T07:04:58.670Z,99.99
2017-08-25T07:05:39.232Z,99.99
2017-08-25T07:06:19.774Z,99.99
2017-08-25T07:07:00.317Z,99.99
2017-08-25T07:07:40.857Z,99.99
2017-08-25T07:08:21.406Z,99.99
2017-08-25T07:09:01.945Z,99.99
2017-08-25T07:09:42.479Z,99.99
2017-08-25T07:10:23.011Z,99.99
2017-08-25T07:11:03.536Z,99.99
2017-08-25T07:11:44.080Z,99.99
2017-08-25T07:12:24.618Z,99.99
2017-08-25T07:13:05.130Z,99.99
2017-08-25T07:13:45.659Z,99.99
2017-08-25T07:14:26.195Z,99.99
2017-08-25T07:15:06.727Z,99.99
2017-08-25T07:15:47.265Z,99.99
2017-08-25T07:16:27.811Z,99.99
2017-08-25T07:17:08.360Z,99.99
2017-08-25T07:17:48.892Z,99.99
2017-08-25T07:18:29.431Z,99.99
2017-08-25T07:19:09.968Z,99.99
2017-08-25T07:19:50.505Z,99.99
2017-08-25T07:20:31.042Z,99.99
2017-08-25T07:21:11.574Z,99.99
2017-08-25T07:21:52.113Z,99.99
2017-08-25T07:22:32.656Z,99.99
2017-08-25T07:23:13.191Z,99.99
2017-08-25T07:23:53.725Z,99.99
2017-08-25T07:24:34.266Z,99.99
2017-08-25T07:25:14.805Z,99.99
2017-08-25T07:25:55.347Z,99.99
2017-08-25T07:26:35.887Z,99.99
2017-08-25T07:27:16.424Z,99.99
2017-08-25T07:27:56.961Z,99.99
2017-08-25T07:28:37.498Z,99.99
2017-08-25T07:29:18.032Z,99.99
2017-08-25T07:29:58.586Z,99.99
2017-08-25T07:30:39.127Z,99.99
2017-08-25T07:31:19.655Z,99.99
2017-08-25T07:32:00.198Z,99.99
2017-08-25T07:32:40.737Z,99.99
2017-08-25T07:33:21.282Z,99.99
2017-08-25T07:34:01.821Z,99.99
2017-08-25T07:34:42.370Z,99.99
2017-08-25T07:35:22.933Z,99.99
2017-08-25T07:36:03.463Z,99.99
2017-08-25T07:36:44.000Z,99.99
2017-08-25T07:37:24.541Z,99.99
2017-08-25T07:38:05.082Z,99.99
2017-08-25T07:38:45.625Z,99.99
2017-08-25T07:39:26.160Z,99.99
2017-08-25T07:40:06.701Z,99.99
2017-08-25T07:40:47.243Z,99.99
2017-08-25T07:41:27.798Z,99.99
2017-08-25T07:42:08.341Z,99.99
2017-08-25T07:42:48.874Z,99.99
2017-08-25T07:43:29.409Z,99.99
2017-08-25T07:44:09.964Z,99.99
2017-08-25T07:44:50.485Z,99.99
2017-08-25T07:45:31.019Z,99.99
2017-08-25T07:46:11.567Z,99.99
2017-08-25T07:46:52.104Z,99.99
2017-08-25T07:47:32.652Z,99.99
2017-08-25T07:48:13.196Z,99.99
2017-08-25T07:48:53.725Z,99.99
2017-08-25T07:49:34.264Z,99.99
2017-08-25T07:50:14.806Z,99.99
2017-08-25T07:50:55.342Z,99.99
2017-08-25T07:51:35.885Z,99.99
2017-08-25T07:52:16.425Z,99.99
2017-08-25T07:52:56.949Z,99.99
2017-08-25T07:53:37.481Z,99.99
2017-08-25T07:54:18.019Z,99.99
2017-08-25T07:54:58.549Z,99.99
2017-08-25T07:55:39.085Z,99.99
2017-08-25T07:56:19.624Z,99.99
2017-08-25T07:57:00.166Z,99.99
2017-08-25T07:57:40.709Z,99.99
2017-08-25T07:58:21.246Z,99.99
2017-08-25T07:59:01.795Z,99.99
2017-08-25T07:59:42.341Z,99.99
2017-08-25T08:00:22.886Z,99.99
2017-08-25T08:01:03.429Z,99.99
2017-08-25T08:01:44.003Z,99.99
2017-08-25T08:02:24.534Z,99.99
2017-08-25T08:03:05.067Z,99.99
2017-08-25T08:03:45.597Z,99.99
2017-08-25T08:04:26.179Z,99.99
2017-08-25T08:05:06.723Z,99.99
2017-08-25T08:05:47.269Z,99.99
2017-08-25T08:06:27.809Z,99.99
2017-08-25T08:07:08.350Z,99.99
2017-08-25T08:07:48.888Z,99.99
2017-08-25T08:08:29.430Z,99.99
2017-08-25T08:09:09.975Z,99.99
2017-08-25T08:09:50.517Z,99.99
2017-08-25T08:10:31.059Z,99.99
2017-08-25T08:11:11.606Z,99.99
2017-08-25T08:11:52.136Z,99.99
2017-08-25T08:12:32.703Z,99.99
2017-08-25T08:13:13.215Z,99.99
2017-08-25T08:13:53.770Z,99.99
2017-08-25T08:14:34.305Z,99.99
2017-08-25T08:15:14.848Z,99.99
2017-08-25T08:15:55.394Z,99.99
2017-08-25T08:16:35.945Z,99.99
2017-08-25T08:17:16.486Z,99.99
2017-08-25T08:17:57.039Z,99.99
2017-08-25T08:18:37.579Z,99.99
2017-08-25T08:19:18.118Z,99.99
2017-08-25T08:19:58.685Z,99.99
2017-08-25T08:20:39.230Z,99.99
2017-08-25T08:21:19.774Z,99.99
2017-08-25T08:22:00.313Z,99.99
2017-08-25T08:22:40.848Z,99.99
2017-08-25T08:23:21.388Z,99.99
2017-08-25T08:24:01.926Z,99.99
2017-08-25T08:24:42.467Z,99.99
2017-08-25T08:25:23.008Z,99.35
2017-08-25T08:26:03.548Z,99.93
2017-08-25T08:26:44.095Z,99.07
2017-08-25T08:27:24.629Z,98.87
2017-08-25T08:28:05.179Z,98.68
2017-08-25T08:28:45.722Z,98.54
2017-08-25T08:29:26.263Z,97.86
2017-08-25T08:30:06.802Z,97.38
2017-08-25T08:30:47.347Z,97.09
2017-08-25T08:31:27.887Z,96.7
2017-08-25T08:32:08.429Z,96.08
2017-08-25T08:32:48.973Z,95.88
2017-08-25T08:33:29.513Z,95.69
2017-08-25T08:34:10.054Z,94.43
2017-08-25T08:34:50.602Z,93.62
2017-08-25T08:35:31.144Z,94.58
2017-08-25T08:36:11.695Z,94
2017-08-25T08:36:52.232Z,94.39
2017-08-25T08:37:32.782Z,94.58
2017-08-25T08:38:13.323Z,93.81
2017-08-25T08:38:53.864Z,93.43
2017-08-25T08:39:34.405Z,93.81
2017-08-25T08:40:14.961Z,94.34
2017-08-25T08:40:55.487Z,94.29
2017-08-25T08:41:36.028Z,94.1
2017-08-25T08:42:16.575Z,93.91